sensor_id;sensor_type;location;lat;lon;timestamp;pressure;altitude;pressure_sealevel;temperature;humidity
28911;BME280;16028;42.642;23.310;2023-04-15T00:02:22;93210.00;;;8.99;71.28
28911;BME280;16028;42.642;23.310;2023-04-15T00:04:48;93220.38;;;8.99;71.68
28911;BME280;16028;42.642;23.310;2023-04-15T00:07:15;93223.91;;;8.98;72.40
28911;BME280;16028;42.642;23.310;2023-04-15T00:09:42;93236.06;;;8.98;72.42
28911;BME280;16028;42.642;23.310;2023-04-15T00:12:09;93251.19;;;9.02;72.33
28911;BME280;16028;42.642;23.310;2023-04-15T00:14:37;93245.66;;;9.06;70.63
28911;BME280;16028;42.642;23.310;2023-04-15T00:17:04;93249.94;;;8.81;72.01
28911;BME280;16028;42.642;23.310;2023-04-15T00:19:31;93254.47;;;8.79;73.03
28911;BME280;16028;42.642;23.310;2023-04-15T00:21:58;93238.47;;;8.83;72.80
28911;BME280;16028;42.642;23.310;2023-04-15T00:24:25;93236.00;;;8.74;72.64
28911;BME280;16028;42.642;23.310;2023-04-15T00:26:52;93236.25;;;8.63;73.72
28911;BME280;16028;42.642;23.310;2023-04-15T00:29:18;93232.19;;;8.60;73.60
28911;BME280;16028;42.642;23.310;2023-04-15T00:31:46;93230.00;;;8.73;74.46
28911;BME280;16028;42.642;23.310;2023-04-15T00:34:13;93232.38;;;8.67;75.20
28911;BME280;16028;42.642;23.310;2023-04-15T00:36:39;93235.63;;;8.69;74.81
28911;BME280;16028;42.642;23.310;2023-04-15T00:39:06;93247.47;;;8.71;74.66
28911;BME280;16028;42.642;23.310;2023-04-15T00:41:32;93240.50;;;8.72;75.11
28911;BME280;16028;42.642;23.310;2023-04-15T00:44:00;93241.50;;;8.79;75.42
28911;BME280;16028;42.642;23.310;2023-04-15T00:46:27;93241.19;;;8.82;75.00
28911;BME280;16028;42.642;23.310;2023-04-15T00:48:56;93246.44;;;8.90;75.60
28911;BME280;16028;42.642;23.310;2023-04-15T00:51:23;93244.94;;;8.87;76.11
28911;BME280;16028;42.642;23.310;2023-04-15T00:53:49;93235.38;;;8.88;76.20
28911;BME280;16028;42.642;23.310;2023-04-15T00:56:17;93243.97;;;8.88;76.40
28911;BME280;16028;42.642;23.310;2023-04-15T00:58:46;93247.38;;;8.89;76.24
28911;BME280;16028;42.642;23.310;2023-04-15T01:01:13;93251.63;;;8.90;76.55
28911;BME280;16028;42.642;23.310;2023-04-15T01:03:40;93251.31;;;8.93;75.95
28911;BME280;16028;42.642;23.310;2023-04-15T01:06:08;93242.56;;;9.02;75.43
28911;BME280;16028;42.642;23.310;2023-04-15T01:08:34;93246.78;;;9.03;75.13
28911;BME280;16028;42.642;23.310;2023-04-15T01:11:01;93257.00;;;9.04;75.16
28911;BME280;16028;42.642;23.310;2023-04-15T01:13:28;93250.03;;;9.05;75.18
28911;BME280;16028;42.642;23.310;2023-04-15T01:15:54;93241.94;;;9.08;74.99
28911;BME280;16028;42.642;23.310;2023-04-15T01:18:21;93242.59;;;9.10;75.66
28911;BME280;16028;42.642;23.310;2023-04-15T01:20:48;93245.19;;;9.10;75.81
28911;BME280;16028;42.642;23.310;2023-04-15T01:23:16;93232.72;;;9.14;76.67
28911;BME280;16028;42.642;23.310;2023-04-15T01:25:44;93229.94;;;9.07;76.75
28911;BME280;16028;42.642;23.310;2023-04-15T01:28:11;93232.84;;;9.04;76.94
28911;BME280;16028;42.642;23.310;2023-04-15T01:30:38;93236.59;;;9.10;76.64
28911;BME280;16028;42.642;23.310;2023-04-15T01:33:05;93235.09;;;8.99;75.99
28911;BME280;16028;42.642;23.310;2023-04-15T01:35:31;93230.25;;;8.96;76.48
28911;BME280;16028;42.642;23.310;2023-04-15T01:37:59;93235.56;;;8.86;77.12
28911;BME280;16028;42.642;23.310;2023-04-15T01:40:28;93231.00;;;8.80;77.61
28911;BME280;16028;42.642;23.310;2023-04-15T01:42:56;93236.31;;;8.79;78.20
28911;BME280;16028;42.642;23.310;2023-04-15T01:45:23;93239.69;;;8.71;78.34
28911;BME280;16028;42.642;23.310;2023-04-15T01:47:49;93237.41;;;8.68;78.39
28911;BME280;16028;42.642;23.310;2023-04-15T01:50:16;93250.53;;;8.67;77.85
28911;BME280;16028;42.642;23.310;2023-04-15T01:52:43;93255.53;;;8.60;78.20
28911;BME280;16028;42.642;23.310;2023-04-15T01:55:10;93257.47;;;8.58;78.51
28911;BME280;16028;42.642;23.310;2023-04-15T01:57:36;93256.78;;;8.56;77.85
28911;BME280;16028;42.642;23.310;2023-04-15T02:00:05;93256.34;;;8.61;78.41
28911;BME280;16028;42.642;23.310;2023-04-15T02:02:32;93257.91;;;8.54;79.58
28911;BME280;16028;42.642;23.310;2023-04-15T02:04:58;93255.13;;;8.47;79.10
28911;BME280;16028;42.642;23.310;2023-04-15T02:07:25;93257.22;;;8.43;79.62
28911;BME280;16028;42.642;23.310;2023-04-15T02:09:53;93259.78;;;8.43;79.22
28911;BME280;16028;42.642;23.310;2023-04-15T02:12:19;93253.16;;;8.41;79.45
28911;BME280;16028;42.642;23.310;2023-04-15T02:14:46;93251.38;;;8.41;79.11
28911;BME280;16028;42.642;23.310;2023-04-15T02:17:14;93239.25;;;8.42;78.87
28911;BME280;16028;42.642;23.310;2023-04-15T02:19:40;93237.75;;;8.39;79.09
28911;BME280;16028;42.642;23.310;2023-04-15T02:22:07;93233.69;;;8.37;79.55
28911;BME280;16028;42.642;23.310;2023-04-15T02:24:35;93242.38;;;8.28;80.09
28911;BME280;16028;42.642;23.310;2023-04-15T02:27:01;93238.94;;;8.27;78.96
28911;BME280;16028;42.642;23.310;2023-04-15T02:29:28;93235.25;;;8.30;79.27
28911;BME280;16028;42.642;23.310;2023-04-15T02:31:56;93236.06;;;8.30;78.17
28911;BME280;16028;42.642;23.310;2023-04-15T02:34:24;93238.66;;;8.30;78.43
28911;BME280;16028;42.642;23.310;2023-04-15T02:36:51;93227.66;;;8.28;78.65
28911;BME280;16028;42.642;23.310;2023-04-15T02:39:21;93232.22;;;8.34;78.58
28911;BME280;16028;42.642;23.310;2023-04-15T02:41:48;93239.34;;;8.32;78.50
28911;BME280;16028;42.642;23.310;2023-04-15T02:44:16;93246.34;;;8.40;78.27
28911;BME280;16028;42.642;23.310;2023-04-15T02:46:44;93256.66;;;8.32;77.34
28911;BME280;16028;42.642;23.310;2023-04-15T02:49:13;93246.00;;;8.17;78.11
28911;BME280;16028;42.642;23.310;2023-04-15T02:51:41;93243.38;;;8.09;78.38
28911;BME280;16028;42.642;23.310;2023-04-15T02:54:07;93243.25;;;7.93;79.66
28911;BME280;16028;42.642;23.310;2023-04-15T02:56:34;93247.09;;;7.89;80.25
28911;BME280;16028;42.642;23.310;2023-04-15T02:59:01;93252.78;;;7.92;80.29
28911;BME280;16028;42.642;23.310;2023-04-15T03:01:27;93255.91;;;7.96;80.72
28911;BME280;16028;42.642;23.310;2023-04-15T03:03:54;93261.81;;;7.88;81.20
28911;BME280;16028;42.642;23.310;2023-04-15T03:06:20;93262.53;;;7.98;82.35
28911;BME280;16028;42.642;23.310;2023-04-15T03:08:50;93256.63;;;7.88;83.07
28911;BME280;16028;42.642;23.310;2023-04-15T03:11:16;93263.88;;;7.85;83.61
28911;BME280;16028;42.642;23.310;2023-04-15T03:13:43;93264.25;;;7.90;83.99
28911;BME280;16028;42.642;23.310;2023-04-15T03:16:10;93257.91;;;7.84;84.39
28911;BME280;16028;42.642;23.310;2023-04-15T03:18:36;93269.56;;;7.88;84.16
28911;BME280;16028;42.642;23.310;2023-04-15T03:21:03;93286.53;;;7.83;84.35
28911;BME280;16028;42.642;23.310;2023-04-15T03:23:30;93276.38;;;7.89;82.75
28911;BME280;16028;42.642;23.310;2023-04-15T03:26:00;93272.53;;;7.76;83.04
28911;BME280;16028;42.642;23.310;2023-04-15T03:28:26;93284.09;;;7.64;84.36
28911;BME280;16028;42.642;23.310;2023-04-15T03:30:53;93284.56;;;7.59;84.72
28911;BME280;16028;42.642;23.310;2023-04-15T03:33:20;93282.09;;;7.58;84.83
28911;BME280;16028;42.642;23.310;2023-04-15T03:35:47;93294.50;;;7.54;84.60
28911;BME280;16028;42.642;23.310;2023-04-15T03:38:13;93287.88;;;7.52;83.88
28911;BME280;16028;42.642;23.310;2023-04-15T03:40:40;93303.53;;;7.50;83.81
28911;BME280;16028;42.642;23.310;2023-04-15T03:43:08;93309.16;;;7.45;84.11
28911;BME280;16028;42.642;23.310;2023-04-15T03:45:35;93312.69;;;7.44;84.56
28911;BME280;16028;42.642;23.310;2023-04-15T03:48:01;93322.38;;;7.42;84.33
28911;BME280;16028;42.642;23.310;2023-04-15T03:50:28;93324.69;;;7.45;85.11
28911;BME280;16028;42.642;23.310;2023-04-15T03:52:54;93324.22;;;7.50;84.92
28911;BME280;16028;42.642;23.310;2023-04-15T03:55:21;93331.81;;;7.34;85.49
28911;BME280;16028;42.642;23.310;2023-04-15T03:57:47;93328.56;;;7.32;85.70
28911;BME280;16028;42.642;23.310;2023-04-15T04:00:15;93321.75;;;7.31;85.16
28911;BME280;16028;42.642;23.310;2023-04-15T04:02:42;93312.97;;;7.24;86.12
28911;BME280;16028;42.642;23.310;2023-04-15T04:05:10;93329.00;;;7.27;86.15
28911;BME280;16028;42.642;23.310;2023-04-15T04:07:36;93329.09;;;7.35;86.06
28911;BME280;16028;42.642;23.310;2023-04-15T04:10:03;93329.22;;;7.34;86.28
28911;BME280;16028;42.642;23.310;2023-04-15T04:12:29;93323.63;;;7.38;86.40
28911;BME280;16028;42.642;23.310;2023-04-15T04:14:56;93329.09;;;7.35;87.09
28911;BME280;16028;42.642;23.310;2023-04-15T04:17:24;93327.84;;;7.39;87.62
28911;BME280;16028;42.642;23.310;2023-04-15T04:19:50;93328.81;;;7.38;87.58
28911;BME280;16028;42.642;23.310;2023-04-15T04:22:17;93325.69;;;7.35;87.29
28911;BME280;16028;42.642;23.310;2023-04-15T04:24:47;93324.81;;;7.44;87.48
28911;BME280;16028;42.642;23.310;2023-04-15T04:27:13;93324.69;;;7.45;87.82
28911;BME280;16028;42.642;23.310;2023-04-15T04:29:40;93325.44;;;7.56;87.71
28911;BME280;16028;42.642;23.310;2023-04-15T04:32:06;93322.91;;;7.64;87.48
28911;BME280;16028;42.642;23.310;2023-04-15T04:34:34;93314.78;;;7.59;87.11
28911;BME280;16028;42.642;23.310;2023-04-15T04:37:01;93320.63;;;7.61;86.30
28911;BME280;16028;42.642;23.310;2023-04-15T04:39:27;93326.50;;;7.53;86.87
28911;BME280;16028;42.642;23.310;2023-04-15T04:41:54;93327.97;;;7.38;88.43
28911;BME280;16028;42.642;23.310;2023-04-15T04:44:21;93336.44;;;7.40;88.54
28911;BME280;16028;42.642;23.310;2023-04-15T04:46:48;93335.97;;;7.44;88.78
28911;BME280;16028;42.642;23.310;2023-04-15T04:49:17;93333.50;;;7.53;89.20
28911;BME280;16028;42.642;23.310;2023-04-15T04:51:45;93333.03;;;7.57;89.11
28911;BME280;16028;42.642;23.310;2023-04-15T04:54:12;93344.66;;;7.71;89.08
28911;BME280;16028;42.642;23.310;2023-04-15T04:56:39;93342.66;;;7.82;88.73
28911;BME280;16028;42.642;23.310;2023-04-15T04:59:05;93336.03;;;8.23;87.77
28911;BME280;16028;42.642;23.310;2023-04-15T05:01:32;93347.69;;;8.37;86.43
28911;BME280;16028;42.642;23.310;2023-04-15T05:03:58;93357.97;;;8.46;85.68
28911;BME280;16028;42.642;23.310;2023-04-15T05:06:25;93372.59;;;8.56;84.55
28911;BME280;16028;42.642;23.310;2023-04-15T05:08:53;93374.44;;;8.63;82.33
28911;BME280;16028;42.642;23.310;2023-04-15T05:11:20;93372.81;;;8.62;81.44
28911;BME280;16028;42.642;23.310;2023-04-15T05:13:47;93383.19;;;8.62;82.27
28911;BME280;16028;42.642;23.310;2023-04-15T05:16:13;93388.22;;;8.64;82.84
28911;BME280;16028;42.642;23.310;2023-04-15T05:18:40;93389.75;;;8.74;79.76
28911;BME280;16028;42.642;23.310;2023-04-15T05:21:07;93393.41;;;8.64;79.57
28911;BME280;16028;42.642;23.310;2023-04-15T05:23:33;93387.03;;;8.84;77.75
28911;BME280;16028;42.642;23.310;2023-04-15T05:26:01;93388.13;;;8.99;77.29
28911;BME280;16028;42.642;23.310;2023-04-15T05:28:28;93392.22;;;9.10;75.70
28911;BME280;16028;42.642;23.310;2023-04-15T05:30:55;93377.06;;;8.97;75.88
28911;BME280;16028;42.642;23.310;2023-04-15T05:33:21;93384.84;;;8.97;76.11
28911;BME280;16028;42.642;23.310;2023-04-15T05:35:48;93373.22;;;9.01;75.41
28911;BME280;16028;42.642;23.310;2023-04-15T05:38:14;93370.72;;;9.17;74.43
28911;BME280;16028;42.642;23.310;2023-04-15T05:40:41;93371.19;;;9.54;72.45
28911;BME280;16028;42.642;23.310;2023-04-15T05:43:09;93375.16;;;9.75;72.89
28911;BME280;16028;42.642;23.310;2023-04-15T05:45:35;93380.84;;;9.86;71.67
28911;BME280;16028;42.642;23.310;2023-04-15T05:48:02;93380.03;;;9.70;72.09
28911;BME280;16028;42.642;23.310;2023-04-15T05:50:29;93382.25;;;9.65;72.59
28911;BME280;16028;42.642;23.310;2023-04-15T05:52:55;93378.72;;;9.74;73.34
28911;BME280;16028;42.642;23.310;2023-04-15T05:55:22;93378.59;;;9.91;71.62
28911;BME280;16028;42.642;23.310;2023-04-15T05:57:48;93379.59;;;9.98;72.50
28911;BME280;16028;42.642;23.310;2023-04-15T06:00:19;93377.81;;;10.07;73.08
28911;BME280;16028;42.642;23.310;2023-04-15T06:02:46;93400.78;;;10.28;73.44
28911;BME280;16028;42.642;23.310;2023-04-15T06:05:12;93396.91;;;10.40;72.14
28911;BME280;16028;42.642;23.310;2023-04-15T06:07:39;93398.38;;;10.42;72.47
28911;BME280;16028;42.642;23.310;2023-04-15T06:10:08;93392.50;;;10.40;71.87
28911;BME280;16028;42.642;23.310;2023-04-15T06:12:34;93397.06;;;10.54;72.59
28911;BME280;16028;42.642;23.310;2023-04-15T06:15:01;93400.16;;;10.58;72.95
28911;BME280;16028;42.642;23.310;2023-04-15T06:17:29;93389.41;;;10.85;72.54
28911;BME280;16028;42.642;23.310;2023-04-15T06:19:56;93410.50;;;11.14;70.08
28911;BME280;16028;42.642;23.310;2023-04-15T06:22:22;93404.81;;;11.11;70.26
28911;BME280;16028;42.642;23.310;2023-04-15T06:24:49;93404.16;;;11.09;70.57
28911;BME280;16028;42.642;23.310;2023-04-15T06:27:16;93407.09;;;11.06;70.05
28911;BME280;16028;42.642;23.310;2023-04-15T06:29:42;93417.31;;;11.24;68.56
28911;BME280;16028;42.642;23.310;2023-04-15T06:32:09;93412.75;;;11.26;68.31
28911;BME280;16028;42.642;23.310;2023-04-15T06:34:38;93423.34;;;11.32;68.11
28911;BME280;16028;42.642;23.310;2023-04-15T06:37:04;93422.66;;;11.30;67.37
28911;BME280;16028;42.642;23.310;2023-04-15T06:39:31;93424.59;;;11.36;65.57
28911;BME280;16028;42.642;23.310;2023-04-15T06:41:57;93429.50;;;11.31;66.70
28911;BME280;16028;42.642;23.310;2023-04-15T06:44:24;93434.97;;;11.52;63.76
28911;BME280;16028;42.642;23.310;2023-04-15T06:46:50;93433.06;;;11.38;65.27
28911;BME280;16028;42.642;23.310;2023-04-15T06:49:17;93443.69;;;11.29;64.62
28911;BME280;16028;42.642;23.310;2023-04-15T06:51:45;93438.97;;;11.16;66.64
28911;BME280;16028;42.642;23.310;2023-04-15T06:54:11;93435.34;;;11.33;65.25
28911;BME280;16028;42.642;23.310;2023-04-15T06:56:38;93435.84;;;11.37;65.29
28911;BME280;16028;42.642;23.310;2023-04-15T06:59:06;93431.97;;;11.25;67.83
28911;BME280;16028;42.642;23.310;2023-04-15T07:01:32;93444.50;;;11.21;65.77
28911;BME280;16028;42.642;23.310;2023-04-15T07:03:59;93450.84;;;11.19;65.93
28911;BME280;16028;42.642;23.310;2023-04-15T07:06:25;93442.22;;;11.18;66.55
28911;BME280;16028;42.642;23.310;2023-04-15T07:08:54;93438.31;;;11.22;66.89
28911;BME280;16028;42.642;23.310;2023-04-15T07:11:21;93437.94;;;11.41;65.06
28911;BME280;16028;42.642;23.310;2023-04-15T07:13:48;93434.84;;;11.38;66.63
28911;BME280;16028;42.642;23.310;2023-04-15T07:16:14;93442.19;;;11.34;66.00
28911;BME280;16028;42.642;23.310;2023-04-15T07:18:41;93440.22;;;11.36;67.99
28911;BME280;16028;42.642;23.310;2023-04-15T07:21:07;93440.03;;;11.46;65.35
28911;BME280;16028;42.642;23.310;2023-04-15T07:23:34;93447.00;;;11.61;63.15
28911;BME280;16028;42.642;23.310;2023-04-15T07:26:02;93443.44;;;11.54;63.39
28911;BME280;16028;42.642;23.310;2023-04-15T07:28:28;93456.16;;;11.49;63.01
28911;BME280;16028;42.642;23.310;2023-04-15T07:30:55;93444.13;;;11.40;66.01
28911;BME280;16028;42.642;23.310;2023-04-15T07:33:22;93443.63;;;11.45;64.81
28911;BME280;16028;42.642;23.310;2023-04-15T07:35:49;93451.13;;;11.48;64.80
28911;BME280;16028;42.642;23.310;2023-04-15T07:38:15;93456.44;;;11.62;64.51
28911;BME280;16028;42.642;23.310;2023-04-15T07:40:42;93437.41;;;11.70;65.50
28911;BME280;16028;42.642;23.310;2023-04-15T07:43:10;93433.16;;;11.77;64.78
28911;BME280;16028;42.642;23.310;2023-04-15T07:45:37;93444.34;;;11.78;64.84
28911;BME280;16028;42.642;23.310;2023-04-15T07:48:04;93441.69;;;11.94;62.15
28911;BME280;16028;42.642;23.310;2023-04-15T07:50:32;93451.97;;;11.95;63.34
28911;BME280;16028;42.642;23.310;2023-04-15T07:52:58;93455.06;;;11.91;63.61
28911;BME280;16028;42.642;23.310;2023-04-15T07:55:25;93450.38;;;12.17;61.63
28911;BME280;16028;42.642;23.310;2023-04-15T07:57:51;93450.34;;;12.25;61.32
28911;BME280;16028;42.642;23.310;2023-04-15T08:00:19;93465.69;;;12.20;62.18
28911;BME280;16028;42.642;23.310;2023-04-15T08:02:45;93463.56;;;12.24;60.73
28911;BME280;16028;42.642;23.310;2023-04-15T08:05:12;93457.72;;;12.22;60.89
28911;BME280;16028;42.642;23.310;2023-04-15T08:07:39;93459.44;;;12.29;57.55
28911;BME280;16028;42.642;23.310;2023-04-15T08:10:06;93455.03;;;12.30;62.04
28911;BME280;16028;42.642;23.310;2023-04-15T08:12:33;93455.16;;;12.36;61.23
28911;BME280;16028;42.642;23.310;2023-04-15T08:14:59;93461.47;;;12.50;59.87
28911;BME280;16028;42.642;23.310;2023-04-15T08:17:27;93458.84;;;12.50;60.93
28911;BME280;16028;42.642;23.310;2023-04-15T08:19:54;93454.34;;;12.66;58.57
28911;BME280;16028;42.642;23.310;2023-04-15T08:22:21;93464.34;;;12.78;59.51
28911;BME280;16028;42.642;23.310;2023-04-15T08:24:48;93462.84;;;12.83;58.59
28911;BME280;16028;42.642;23.310;2023-04-15T08:27:14;93457.28;;;13.09;54.77
28911;BME280;16028;42.642;23.310;2023-04-15T08:29:41;93446.69;;;13.10;58.28
28911;BME280;16028;42.642;23.310;2023-04-15T08:32:07;93443.56;;;13.30;50.39
28911;BME280;16028;42.642;23.310;2023-04-15T08:34:35;93442.84;;;13.50;47.96
28911;BME280;16028;42.642;23.310;2023-04-15T08:37:02;93442.50;;;13.53;49.46
28911;BME280;16028;42.642;23.310;2023-04-15T08:39:28;93437.94;;;13.55;51.66
28911;BME280;16028;42.642;23.310;2023-04-15T08:41:55;93435.31;;;13.70;51.16
28911;BME280;16028;42.642;23.310;2023-04-15T08:44:25;93434.78;;;13.74;51.02
28911;BME280;16028;42.642;23.310;2023-04-15T08:46:54;93436.13;;;13.70;53.22
28911;BME280;16028;42.642;23.310;2023-04-15T08:49:21;93440.19;;;13.88;47.81
28911;BME280;16028;42.642;23.310;2023-04-15T08:51:51;93436.47;;;13.97;45.66
28911;BME280;16028;42.642;23.310;2023-04-15T08:54:18;93439.63;;;13.92;44.24
28911;BME280;16028;42.642;23.310;2023-04-15T08:56:44;93430.34;;;13.90;44.34
28911;BME280;16028;42.642;23.310;2023-04-15T08:59:11;93421.03;;;14.02;43.27
28911;BME280;16028;42.642;23.310;2023-04-15T09:01:39;93415.44;;;14.05;43.59
28911;BME280;16028;42.642;23.310;2023-04-15T09:04:05;93426.63;;;14.13;42.35
28911;BME280;16028;42.642;23.310;2023-04-15T09:06:32;93426.34;;;14.23;43.05
28911;BME280;16028;42.642;23.310;2023-04-15T09:09:01;93427.94;;;14.39;41.57
28911;BME280;16028;42.642;23.310;2023-04-15T09:11:28;93423.78;;;14.44;42.96
28911;BME280;16028;42.642;23.310;2023-04-15T09:13:55;93410.00;;;14.57;42.99
28911;BME280;16028;42.642;23.310;2023-04-15T09:16:21;93404.84;;;14.63;43.71
28911;BME280;16028;42.642;23.310;2023-04-15T09:18:48;93410.09;;;14.63;40.26
28911;BME280;16028;42.642;23.310;2023-04-15T09:21:15;93406.03;;;14.61;43.73
28911;BME280;16028;42.642;23.310;2023-04-15T09:23:53;93409.13;;;14.50;46.18
28911;BME280;16028;42.642;23.310;2023-04-15T09:26:28;93409.56;;;14.53;43.95
28911;BME280;16028;42.642;23.310;2023-04-15T09:28:56;93414.88;;;14.60;43.52
28911;BME280;16028;42.642;23.310;2023-04-15T09:31:28;93413.44;;;14.57;43.13
28911;BME280;16028;42.642;23.310;2023-04-15T09:33:55;93410.22;;;14.76;38.55
28911;BME280;16028;42.642;23.310;2023-04-15T09:36:22;93400.97;;;14.80;38.70
28911;BME280;16028;42.642;23.310;2023-04-15T09:38:53;93404.84;;;14.84;40.60
28911;BME280;16028;42.642;23.310;2023-04-15T09:41:20;93404.53;;;14.73;40.26
28911;BME280;16028;42.642;23.310;2023-04-15T09:43:48;93408.16;;;14.72;40.89
28911;BME280;16028;42.642;23.310;2023-04-15T09:46:15;93409.91;;;14.86;42.68
28911;BME280;16028;42.642;23.310;2023-04-15T09:48:41;93407.03;;;15.02;40.22
28911;BME280;16028;42.642;23.310;2023-04-15T09:51:08;93407.53;;;15.19;38.94
28911;BME280;16028;42.642;23.310;2023-04-15T09:53:35;93419.56;;;15.34;37.59
28911;BME280;16028;42.642;23.310;2023-04-15T09:56:02;93409.88;;;15.35;37.37
28911;BME280;16028;42.642;23.310;2023-04-15T09:58:32;93414.72;;;15.38;39.54
28911;BME280;16028;42.642;23.310;2023-04-15T10:01:01;93415.22;;;15.48;38.68
28911;BME280;16028;42.642;23.310;2023-04-15T10:03:29;93402.84;;;15.63;37.29
28911;BME280;16028;42.642;23.310;2023-04-15T10:05:57;93404.91;;;15.74;38.64
28911;BME280;16028;42.642;23.310;2023-04-15T10:08:24;93399.88;;;15.79;38.57
28911;BME280;16028;42.642;23.310;2023-04-15T10:10:51;93407.59;;;15.87;37.90
28911;BME280;16028;42.642;23.310;2023-04-15T10:13:18;93404.22;;;15.94;37.29
28911;BME280;16028;42.642;23.310;2023-04-15T10:15:47;93395.13;;;15.96;36.65
28911;BME280;16028;42.642;23.310;2023-04-15T10:18:18;93397.53;;;15.91;37.69
28911;BME280;16028;42.642;23.310;2023-04-15T10:20:45;93396.34;;;15.94;36.44
28911;BME280;16028;42.642;23.310;2023-04-15T10:23:12;93390.00;;;15.75;36.20
28911;BME280;16028;42.642;23.310;2023-04-15T10:25:39;93382.91;;;15.69;37.74
28911;BME280;16028;42.642;23.310;2023-04-15T10:28:06;93385.78;;;15.80;36.14
28911;BME280;16028;42.642;23.310;2023-04-15T10:30:33;93378.16;;;15.85;37.08
28911;BME280;16028;42.642;23.310;2023-04-15T10:32:59;93379.81;;;16.00;36.92
28911;BME280;16028;42.642;23.310;2023-04-15T10:35:31;93387.16;;;16.17;35.42
28911;BME280;16028;42.642;23.310;2023-04-15T10:37:58;93385.13;;;16.19;36.11
28911;BME280;16028;42.642;23.310;2023-04-15T10:40:27;93375.63;;;16.18;35.59
28911;BME280;16028;42.642;23.310;2023-04-15T10:42:56;93379.06;;;16.19;35.63
28911;BME280;16028;42.642;23.310;2023-04-15T10:45:24;93376.44;;;16.19;36.23
28911;BME280;16028;42.642;23.310;2023-04-15T10:47:51;93373.06;;;16.31;37.88
28911;BME280;16028;42.642;23.310;2023-04-15T10:50:19;93373.09;;;16.45;35.61
28911;BME280;16028;42.642;23.310;2023-04-15T10:52:49;93374.94;;;16.51;34.58
28911;BME280;16028;42.642;23.310;2023-04-15T10:55:17;93372.75;;;16.61;34.83
28911;BME280;16028;42.642;23.310;2023-04-15T10:57:44;93370.31;;;16.59;33.82
28911;BME280;16028;42.642;23.310;2023-04-15T11:00:11;93370.31;;;16.59;32.67
28911;BME280;16028;42.642;23.310;2023-04-15T11:02:40;93366.69;;;16.60;34.92
28911;BME280;16028;42.642;23.310;2023-04-15T11:05:07;93360.88;;;16.78;34.65
28911;BME280;16028;42.642;23.310;2023-04-15T11:07:37;93360.66;;;16.86;36.33
28911;BME280;16028;42.642;23.310;2023-04-15T11:10:49;93358.84;;;16.80;33.74
28911;BME280;16028;42.642;23.310;2023-04-15T11:13:03;93369.38;;;16.86;34.98
28911;BME280;16028;42.642;23.310;2023-04-15T11:15:31;93372.59;;;16.95;35.16
28911;BME280;16028;42.642;23.310;2023-04-15T11:17:58;93365.94;;;17.06;35.98
28911;BME280;16028;42.642;23.310;2023-04-15T11:20:25;93354.59;;;17.12;37.62
28911;BME280;16028;42.642;23.310;2023-04-15T11:22:53;93356.81;;;17.28;34.67
28911;BME280;16028;42.642;23.310;2023-04-15T11:25:24;93357.81;;;17.40;33.20
28911;BME280;16028;42.642;23.310;2023-04-15T11:27:51;93358.78;;;17.52;32.65
28911;BME280;16028;42.642;23.310;2023-04-15T11:30:19;93362.66;;;17.50;34.25
28911;BME280;16028;42.642;23.310;2023-04-15T11:32:46;93365.69;;;17.53;34.04
28911;BME280;16028;42.642;23.310;2023-04-15T11:35:13;93381.28;;;17.41;32.84
28911;BME280;16028;42.642;23.310;2023-04-15T11:37:39;93355.41;;;17.25;31.62
28911;BME280;16028;42.642;23.310;2023-04-15T11:40:06;93361.50;;;17.13;31.89
28911;BME280;16028;42.642;23.310;2023-04-15T11:42:34;93357.41;;;17.17;33.09
28911;BME280;16028;42.642;23.310;2023-04-15T11:45:07;93361.66;;;17.24;33.77
28911;BME280;16028;42.642;23.310;2023-04-15T11:47:34;93363.09;;;17.20;31.79
28911;BME280;16028;42.642;23.310;2023-04-15T11:50:14;93365.13;;;17.18;33.37
28911;BME280;16028;42.642;23.310;2023-04-15T11:52:50;93352.38;;;17.35;34.57
28911;BME280;16028;42.642;23.310;2023-04-15T11:55:17;93352.56;;;17.20;32.80
28911;BME280;16028;42.642;23.310;2023-04-15T11:57:45;93362.91;;;17.15;31.43
28911;BME280;16028;42.642;23.310;2023-04-15T12:00:12;93357.63;;;17.22;32.68
28911;BME280;16028;42.642;23.310;2023-04-15T12:02:38;93351.75;;;17.26;33.47
28911;BME280;16028;42.642;23.310;2023-04-15T12:05:05;93350.75;;;17.34;33.46
28911;BME280;16028;42.642;23.310;2023-04-15T12:07:32;93356.22;;;17.32;31.10
28911;BME280;16028;42.642;23.310;2023-04-15T12:09:58;93348.75;;;17.23;31.80
28911;BME280;16028;42.642;23.310;2023-04-15T12:12:26;93352.97;;;17.24;31.63
28911;BME280;16028;42.642;23.310;2023-04-15T12:14:54;93353.78;;;17.18;31.69
28911;BME280;16028;42.642;23.310;2023-04-15T12:17:22;93347.13;;;17.09;32.05
28911;BME280;16028;42.642;23.310;2023-04-15T12:19:54;93356.00;;;17.21;34.77
28911;BME280;16028;42.642;23.310;2023-04-15T12:22:21;93350.16;;;17.32;33.01
28911;BME280;16028;42.642;23.310;2023-04-15T12:24:52;93356.00;;;17.40;33.35
28911;BME280;16028;42.642;23.310;2023-04-15T12:27:24;93367.09;;;17.49;34.65
28911;BME280;16028;42.642;23.310;2023-04-15T12:29:58;93359.59;;;17.53;32.60
28911;BME280;16028;42.642;23.310;2023-04-15T12:32:28;93355.19;;;17.40;33.02
28911;BME280;16028;42.642;23.310;2023-04-15T12:34:55;93354.56;;;17.44;33.52
28911;BME280;16028;42.642;23.310;2023-04-15T12:37:22;93362.25;;;17.33;33.60
28911;BME280;16028;42.642;23.310;2023-04-15T12:39:48;93360.84;;;17.50;35.30
28911;BME280;16028;42.642;23.310;2023-04-15T12:42:15;93368.94;;;17.55;35.54
28911;BME280;16028;42.642;23.310;2023-04-15T12:44:42;93369.28;;;17.78;33.97
28911;BME280;16028;42.642;23.310;2023-04-15T12:47:10;93361.41;;;17.52;32.13
28911;BME280;16028;42.642;23.310;2023-04-15T12:49:37;93367.50;;;17.59;33.03
28911;BME280;16028;42.642;23.310;2023-04-15T12:52:04;93364.88;;;17.59;32.57
28911;BME280;16028;42.642;23.310;2023-04-15T12:54:31;93376.59;;;17.76;34.01
28911;BME280;16028;42.642;23.310;2023-04-15T12:56:58;93370.13;;;17.72;32.62